DNMN

Details ICAO DNMN (MXJ)
Name MINNA NEW
Region Nigeria
Timezone Africa/Lagos (UTC+1.0)
Plans Departing 2
Arriving 4
Stats Elevation 834 ft / 254 m (AMSL)
Location 9.652340° 6.462350°
Runways 1
Magnetic Variation 0.885° W
Sunrise 2017-12-15 05:43:47 UTC / 2017-12-15 06:43:47 Local
Sunset 2017-12-15 17:17:36 UTC / 2017-12-15 18:17:36 Local
Advertisement - Login to hide

Runways

ID Width Length Bearing (true) Bearing (mag) Surface Threshold Offset Overrun Length
05 145 ft / 44 m 11,179 ft / 3,407 m 45.14° 46.03° Asphalt 0 ft / 0 m 311 ft / 95 m
23 145 ft / 44 m 11,179 ft / 3,407 m 225.14° 226.03° Asphalt 0 ft / 0 m 311 ft / 95 m

Approach Navaids

Runway Type Ident Frequency Range Bearing (true) Bearing (mag) Slope Elevation
05 Localiser IMN 110.50 MHz 18 nm / 33 km 45.13° 46.02° - 834 ft / 254 m (AMSL)
05 Glidescope IMN 110.50 MHz 10 nm / 19 km 45.14° 46.03° 3.00° 834 ft / 254 m (AMSL)

Map

Weather


0- 5 10 15 20 25 30 35+ Temperature / ° C

Clouds and Precipitation
Forecast for 2017-12-16 00:00 UTC. Updated 44 minutes ago

Ground ~20,000 ft ~40,000 ft Winds

METAR

Not found

TAF

TAF DNMN 151530Z 1518/1624 03005KT 7000 NSC NSW BECMG 1522/124 18010KT TEMPO 1604/1610 09005KT 5000 HZ

Frequencies

Tower 118.30 MHz TWR
Warning: Do not use this data for real-world aviation or navigation. No guarantee of current accuracy is given.